Piopolis, Illinois
Current Conditions -  °F | °C
As of 2:55 PM on Tuesday 27 Jan 2015 (Local Time) from KFWC Reporting Station
Overcast Overcast  
Wind Chill: 30°   Ceiling: 2800
Heat Index: 37°   Visibility: 10mi
Dew Point: 30°   Wind: 9mph
Humidity: 75%   Direction: 350°N
Pressure: 30.16"   Gusts: NA
Location:  38.1018°N, 88.4953°W
Report Text: KFWC 272055Z AUTO 35008KT 10SM SCT021 BKN028 OVC035 03/M01 A3016 RMK AO1 T00281012
Loading
Personal Weather Stations






























Interactive Weather Map New forecast layout! Learn more

10-Day Weather Forecast

Advertisements
Track Severe Weather on mobile